No.10 Hasshomaru — JD2992 — position and weather

sailwx.info

Track history (hours):
 
Tides and Currents Weather Stations Pressure Air Temp Water Temp Dewpoint Dewpoint Depression Visibility Wind Speed Wind Dir Waves Ship Positions

No.10 Hasshomaru

Last reported at 2014-Nov-07 14:26 UTC. Time now 2014-Nov-28 22:56 UTC.
Position N 35°06' E 139°43'.
Warning: this ship's position is 21 days out of date.

Length 105 m; draft 6.5 m.

Type: Tanker. MMSI: 431001112.

Date/timePositionNaut miles runAvg speedWind from/ knotsBaromVisibWave heightAir tempDewpointWater temp
2014-Nov-07 14:26N 35°06' E 139°43'1012.1
2014-Nov-07 13:33N 35°17' E 139°45'1110.9
2014-Nov-07 12:33N 35°27' E 139°48'6 5.3
2014-Nov-07 11:22N 35°30' E 139°55'0 0.0
2014-Nov-07 10:28N 35°30' E 139°55'0 0.0
2014-Nov-07 09:31N 35°30' E 139°55'0 0.0
2014-Nov-07 08:31N 35°30' E 139°55'0 0.0
2014-Nov-07 07:31N 35°30' E 139°55'0 0.1
2014-Nov-07 06:31N 35°30' E 139°55'0 0.0
2014-Nov-07 05:25N 35°30' E 139°55'0 0.0
2014-Nov-07 04:28N 35°30' E 139°55'0 0.0
2014-Nov-07 03:31N 35°30' E 139°55'0 0.0
2014-Nov-07 02:19N 35°30' E 139°55'0 0.0
2014-Nov-07 01:22N 35°30' E 139°55'0 0.0
2014-Nov-07 00:31N 35°30' E 139°55'0 0.1
2014-Nov-06 23:31N 35°30' E 139°55'0 0.0
2014-Nov-06 22:34N 35°30' E 139°55'0 0.0
2014-Nov-06 21:34N 35°30' E 139°55'0 0.0
2014-Nov-06 20:31N 35°30' E 139°55'0 0.1
2014-Nov-06 19:34N 35°30' E 139°55'0 0.0
2014-Nov-06 18:34N 35°30' E 139°55'0 0.0
2014-Nov-06 17:34N 35°30' E 139°55'0 0.0
2014-Nov-06 16:31N 35°30' E 139°55'0 0.0
2014-Nov-06 15:34N 35°30' E 139°55'0 0.0
2014-Nov-06 14:31N 35°30' E 139°55'0 0.1
2014-Nov-06 13:31N 35°30' E 139°55'0 0.0
2014-Nov-06 12:31N 35°30' E 139°55'0 0.0
2014-Nov-06 11:34N 35°30' E 139°55'0 0.0
2014-Nov-06 10:31N 35°30' E 139°55'0 0.0
2014-Nov-06 09:31N 35°30' E 139°55'0 0.0
2014-Nov-06 08:25N 35°30' E 139°55'3 3.6
2014-Nov-06 07:28N 35°30' E 139°59'2 0.3
2014-Nov-06 00:16N 35°28' E 140°01'5 0.2
2014-Nov-04 22:16N 35°33' E 139°60'5 6.4
2014-Nov-04 21:28N 35°31' E 139°54'0 0.0
2014-Nov-04 20:31N 35°31' E 139°54'0 0.0
2014-Nov-04 19:28N 35°31' E 139°54'0 0.0
2014-Nov-04 18:28N 35°31' E 139°54'0 0.0
2014-Nov-04 17:31N 35°31' E 139°54'0 0.0
2014-Nov-04 16:31N 35°31' E 139°54'4 4.1
2014-Nov-04 15:33N 35°28' E 139°51'1111.2
2014-Nov-04 14:33N 35°18' E 139°45'1512.1
2014-Nov-04 13:21N 35°04' E 139°41'  
2014-Oct-29 14:32N 33°56' E 134°60'1414.0
2014-Oct-29 13:33N 34°10' E 134°59'1413.7
2014-Oct-29 12:33N 34°24' E 135°00'1312.7
2014-Oct-29 11:33N 34°37' E 135°02'  
Track history (hours):
 
Tides and Currents Weather Stations Pressure Air Temp Water Temp Dewpoint Dewpoint Depression Visibility Wind Speed Wind Dir Waves Ship Positions

No.10 Hasshomaru

Last reported at 2014-Nov-07 14:26 UTC. Time now 2014-Nov-28 22:56 UTC.
Position N 35°06' E 139°43'.
Warning: this ship's position is 21 days out of date.

Length 105 m; draft 6.5 m.

Type: Tanker. MMSI: 431001112.

Date/timePositionNaut miles runAvg speedWind from/ knotsBaromVisibWave heightAir tempDewpointWater temp
2014-Nov-07 14:26N 35°06' E 139°43'1012.1
2014-Nov-07 13:33N 35°17' E 139°45'1110.9
2014-Nov-07 12:33N 35°27' E 139°48'6 5.3
2014-Nov-07 11:22N 35°30' E 139°55'0 0.0
2014-Nov-07 10:28N 35°30' E 139°55'0 0.0
2014-Nov-07 09:31N 35°30' E 139°55'0 0.0
2014-Nov-07 08:31N 35°30' E 139°55'0 0.0
2014-Nov-07 07:31N 35°30' E 139°55'0 0.1
2014-Nov-07 06:31N 35°30' E 139°55'0 0.0
2014-Nov-07 05:25N 35°30' E 139°55'0 0.0
2014-Nov-07 04:28N 35°30' E 139°55'0 0.0
2014-Nov-07 03:31N 35°30' E 139°55'0 0.0
2014-Nov-07 02:19N 35°30' E 139°55'0 0.0
2014-Nov-07 01:22N 35°30' E 139°55'0 0.0
2014-Nov-07 00:31N 35°30' E 139°55'0 0.1
2014-Nov-06 23:31N 35°30' E 139°55'0 0.0
2014-Nov-06 22:34N 35°30' E 139°55'0 0.0
2014-Nov-06 21:34N 35°30' E 139°55'0 0.0
2014-Nov-06 20:31N 35°30' E 139°55'0 0.1
2014-Nov-06 19:34N 35°30' E 139°55'0 0.0
2014-Nov-06 18:34N 35°30' E 139°55'0 0.0
2014-Nov-06 17:34N 35°30' E 139°55'0 0.0
2014-Nov-06 16:31N 35°30' E 139°55'0 0.0
2014-Nov-06 15:34N 35°30' E 139°55'0 0.0
2014-Nov-06 14:31N 35°30' E 139°55'0 0.1
2014-Nov-06 13:31N 35°30' E 139°55'0 0.0
2014-Nov-06 12:31N 35°30' E 139°55'0 0.0
2014-Nov-06 11:34N 35°30' E 139°55'0 0.0
2014-Nov-06 10:31N 35°30' E 139°55'0 0.0
2014-Nov-06 09:31N 35°30' E 139°55'0 0.0
2014-Nov-06 08:25N 35°30' E 139°55'3 3.6
2014-Nov-06 07:28N 35°30' E 139°59'2 0.3
2014-Nov-06 00:16N 35°28' E 140°01'5 0.2
2014-Nov-04 22:16N 35°33' E 139°60'5 6.4
2014-Nov-04 21:28N 35°31' E 139°54'0 0.0
2014-Nov-04 20:31N 35°31' E 139°54'0 0.0
2014-Nov-04 19:28N 35°31' E 139°54'0 0.0
2014-Nov-04 18:28N 35°31' E 139°54'0 0.0
2014-Nov-04 17:31N 35°31' E 139°54'0 0.0
2014-Nov-04 16:31N 35°31' E 139°54'4 4.1
2014-Nov-04 15:33N 35°28' E 139°51'1111.2
2014-Nov-04 14:33N 35°18' E 139°45'1512.1
2014-Nov-04 13:21N 35°04' E 139°41'  
2014-Oct-29 14:32N 33°56' E 134°60'1414.0
2014-Oct-29 13:33N 34°10' E 134°59'1413.7
2014-Oct-29 12:33N 34°24' E 135°00'1312.7
2014-Oct-29 11:33N 34°37' E 135°02'  

Dump ship's entire track history